Terminal Aerodrome Forecast
Issued by NWS El Paso, TX

Home | Current Version | Previous Version | Text Only | Print | Product List | Glossary On
Versions: 1 2 3 4 5 6 7 8 9 10 11 12 13
916
FTUS44 KEPZ 251720
TAFELP
TAF
KELP 251720Z 2518/2618 03007KT P6SM FEW140 FEW220 BKN250
     FM252000 09007KT P6SM FEW100 SCT140
     FM260600 12007KT P6SM SCT100 SCT140 BKN250
     FM261300 15007KT P6SM FEW100 FEW140=

USA.gov is the U.S. government's official web portal to all federal, state and local government web resources and services.